NKS828 KBWI-TXKF
Flight info
| Callsign | NKS828 |
|---|---|
| Flight time | 1h 44m |
| Altitude | 35000 |
| Route | DUKPN1 DONIL DCT CORNE B24 WEBBB/M076F350 DCT DARUX L459 DASER MOMOM1 |
| Aircraft | A320/M-SDE3FGHIRWY/LB1 |
Departure
| Time | 2026-04-27 19:48 |
|---|---|
| Airport | Baltimore/Washington International Thurgood Marshall Airport (KBWI) |
Arrival
| Time | 2026-04-27 21:32 |
|---|---|
| Airport | L.F. Wade International Airport (TXKF) |
| Time | Latitude | Longitude | Altitude | Speed | Heading |
|---|---|---|---|---|---|
| 2026-04-27 19:24 | 39.17786 | -76.67116 | 156 ft | 0 kts | 92° |
| 2026-04-27 19:40 | 39.17788 | -76.67136 | 155 ft | 4 kts | 94° |
| 2026-04-27 19:40 | 39.17789 | -76.67171 | 155 ft | 4 kts | 91° |
| 2026-04-27 19:40 | 39.17790 | -76.67205 | 155 ft | 4 kts | 102° |
| 2026-04-27 19:40 | 39.17800 | -76.67235 | 155 ft | 3 kts | 140° |
| 2026-04-27 19:41 | 39.17803 | -76.67239 | 155 ft | 0 kts | 144° |
| 2026-04-27 19:42 | 39.17797 | -76.67233 | 155 ft | 4 kts | 144° |
| 2026-04-27 19:43 | 39.17758 | -76.67199 | 155 ft | 8 kts | 146° |
| 2026-04-27 19:43 | 39.17691 | -76.67138 | 155 ft | 15 kts | 146° |
| 2026-04-27 19:43 | 39.17592 | -76.67043 | 155 ft | 19 kts | 143° |
| 2026-04-27 19:43 | 39.17535 | -76.66896 | 156 ft | 16 kts | 91° |
| 2026-04-27 19:44 | 39.17466 | -76.66797 | 154 ft | 16 kts | 111° |
| 2026-04-27 19:44 | 39.17453 | -76.66643 | 153 ft | 18 kts | 94° |
| 2026-04-27 19:44 | 39.17367 | -76.66594 | 152 ft | 17 kts | 184° |
| 2026-04-27 19:44 | 39.17243 | -76.66606 | 152 ft | 19 kts | 185° |
| 2026-04-27 19:45 | 39.17108 | -76.66618 | 152 ft | 20 kts | 183° |
| 2026-04-27 19:45 | 39.16997 | -76.66531 | 150 ft | 20 kts | 143° |
| 2026-04-27 19:45 | 39.16877 | -76.66419 | 148 ft | 23 kts | 145° |
| 2026-04-27 19:45 | 39.16736 | -76.66290 | 141 ft | 26 kts | 144° |
| 2026-04-27 19:46 | 39.16580 | -76.66139 | 136 ft | 29 kts | 142° |
| 2026-04-27 19:46 | 39.16503 | -76.66123 | 137 ft | 9 kts | 201° |
| 2026-04-27 19:46 | 39.16483 | -76.66153 | 140 ft | 0 kts | 239° |
| 2026-04-27 19:47 | 39.16478 | -76.66161 | 140 ft | 5 kts | 237° |
| 2026-04-27 19:47 | 39.16448 | -76.66259 | 144 ft | 17 kts | 305° |
| 2026-04-27 19:47 | 39.16643 | -76.66439 | 143 ft | 68 kts | 323° |
| 2026-04-27 19:48 | 39.17204 | -76.66964 | 151 ft | 128 kts | 324° |
| 2026-04-27 19:48 | 39.18057 | -76.67748 | 197 ft | 169 kts | 324° |
| 2026-04-27 19:48 | 39.18989 | -76.68665 | 829 ft | 168 kts | 324° |
| 2026-04-27 19:48 | 39.19931 | -76.69546 | 1470 ft | 170 kts | 325° |
| 2026-04-27 19:49 | 39.20953 | -76.70448 | 1717 ft | 187 kts | 332° |
| 2026-04-27 19:49 | 39.22268 | -76.70632 | 1902 ft | 203 kts | 21° |
| 2026-04-27 19:49 | 39.23353 | -76.69458 | 2162 ft | 214 kts | 65° |
| 2026-04-27 19:49 | 39.23568 | -76.67508 | 2546 ft | 230 kts | 96° |
| 2026-04-27 19:50 | 39.23359 | -76.65469 | 3280 ft | 233 kts | 98° |
| 2026-04-27 19:50 | 39.23109 | -76.63386 | 4010 ft | 238 kts | 98° |
| 2026-04-27 19:50 | 39.22839 | -76.61169 | 4525 ft | 255 kts | 97° |
| 2026-04-27 19:50 | 39.22564 | -76.58876 | 5252 ft | 261 kts | 97° |
| 2026-04-27 19:51 | 39.22291 | -76.56540 | 6048 ft | 265 kts | 98° |
| 2026-04-27 19:51 | 39.22020 | -76.54180 | 6875 ft | 267 kts | 97° |
| 2026-04-27 19:51 | 39.21749 | -76.51795 | 7590 ft | 271 kts | 97° |
| 2026-04-27 19:51 | 39.21477 | -76.49355 | 8285 ft | 278 kts | 96° |
| 2026-04-27 19:52 | 39.21201 | -76.46864 | 8989 ft | 283 kts | 96° |
| 2026-04-27 19:52 | 39.21015 | -76.45188 | 9469 ft | 287 kts | 95° |
| 2026-04-27 19:52 | 39.20634 | -76.41732 | 10273 ft | 299 kts | 95° |
| 2026-04-27 19:52 | 39.20330 | -76.38979 | 10437 ft | 322 kts | 95° |
| 2026-04-27 19:53 | 39.19661 | -76.32988 | 11186 ft | 346 kts | 96° |
| 2026-04-27 19:53 | 39.19305 | -76.29894 | 11766 ft | 351 kts | 96° |
| 2026-04-27 19:53 | 39.18946 | -76.26762 | 12361 ft | 355 kts | 95° |
| 2026-04-27 19:54 | 39.18584 | -76.23595 | 12960 ft | 359 kts | 95° |
| 2026-04-27 19:54 | 39.18219 | -76.20394 | 13537 ft | 363 kts | 95° |
| 2026-04-27 19:54 | 39.17851 | -76.17151 | 14128 ft | 368 kts | 95° |
| 2026-04-27 19:54 | 39.17481 | -76.13874 | 14649 ft | 371 kts | 95° |
| 2026-04-27 19:55 | 39.17107 | -76.10580 | 15202 ft | 373 kts | 95° |
| 2026-04-27 19:55 | 39.16733 | -76.07296 | 15701 ft | 377 kts | 95° |
| 2026-04-27 19:55 | 39.16344 | -76.03899 | 16225 ft | 380 kts | 95° |
| 2026-04-27 19:55 | 39.15954 | -76.00524 | 16736 ft | 383 kts | 95° |
| 2026-04-27 19:56 | 39.15558 | -75.97117 | 17247 ft | 386 kts | 95° |
| 2026-04-27 19:56 | 39.15158 | -75.93689 | 17767 ft | 389 kts | 95° |
| 2026-04-27 19:56 | 39.14754 | -75.90223 | 18288 ft | 392 kts | 95° |
| 2026-04-27 19:56 | 39.14348 | -75.86734 | 18754 ft | 396 kts | 95° |
| 2026-04-27 19:57 | 39.14077 | -75.84408 | 19051 ft | 398 kts | 95° |
| 2026-04-27 19:57 | 39.13661 | -75.80848 | 19493 ft | 401 kts | 95° |
| 2026-04-27 19:57 | 39.13246 | -75.77297 | 19947 ft | 405 kts | 95° |
| 2026-04-27 19:57 | 39.12825 | -75.73703 | 20407 ft | 407 kts | 94° |
| 2026-04-27 19:58 | 39.12400 | -75.70083 | 20836 ft | 411 kts | 94° |
| 2026-04-27 19:58 | 39.11970 | -75.66435 | 21251 ft | 414 kts | 94° |
| 2026-04-27 19:58 | 39.11533 | -75.62754 | 21658 ft | 417 kts | 94° |
| 2026-04-27 19:58 | 39.11089 | -75.59051 | 22064 ft | 420 kts | 94° |
| 2026-04-27 19:59 | 39.10640 | -75.55322 | 22458 ft | 423 kts | 94° |
| 2026-04-27 19:59 | 39.10189 | -75.51562 | 22851 ft | 426 kts | 94° |
| 2026-04-27 19:59 | 39.09735 | -75.47774 | 23244 ft | 429 kts | 94° |
| 2026-04-27 19:59 | 39.09277 | -75.43964 | 23629 ft | 433 kts | 94° |
| 2026-04-27 20:00 | 39.08813 | -75.40125 | 23993 ft | 436 kts | 94° |
| 2026-04-27 20:00 | 39.08344 | -75.36257 | 24305 ft | 439 kts | 94° |
| 2026-04-27 20:00 | 39.07872 | -75.32363 | 24617 ft | 442 kts | 94° |
| 2026-04-27 20:00 | 39.07147 | -75.28484 | 24926 ft | 450 kts | 103° |
| 2026-04-27 20:01 | 39.06176 | -75.24637 | 25241 ft | 453 kts | 103° |
| 2026-04-27 20:01 | 39.05195 | -75.20771 | 25561 ft | 456 kts | 103° |
| 2026-04-27 20:01 | 39.04208 | -75.16879 | 25866 ft | 459 kts | 103° |
| 2026-04-27 20:01 | 39.03214 | -75.12967 | 26176 ft | 462 kts | 103° |
| 2026-04-27 20:02 | 39.02214 | -75.09030 | 26470 ft | 464 kts | 103° |
| 2026-04-27 20:02 | 39.01209 | -75.05072 | 26804 ft | 467 kts | 103° |
| 2026-04-27 20:02 | 39.00199 | -75.01090 | 27077 ft | 470 kts | 103° |
| 2026-04-27 20:02 | 38.99180 | -74.97077 | 27385 ft | 473 kts | 103° |
| 2026-04-27 20:03 | 38.98156 | -74.93048 | 27672 ft | 476 kts | 103° |
| 2026-04-27 20:03 | 38.97121 | -74.88994 | 27961 ft | 479 kts | 103° |
| 2026-04-27 20:03 | 38.96075 | -74.84914 | 28256 ft | 482 kts | 103° |
| 2026-04-27 20:03 | 38.95023 | -74.80815 | 28550 ft | 485 kts | 103° |
| 2026-04-27 20:04 | 38.93967 | -74.76694 | 28842 ft | 487 kts | 103° |
| 2026-04-27 20:04 | 38.92902 | -74.72548 | 29127 ft | 490 kts | 103° |
| 2026-04-27 20:04 | 38.91830 | -74.68381 | 29406 ft | 493 kts | 103° |
| 2026-04-27 20:04 | 38.90753 | -74.64200 | 29750 ft | 494 kts | 103° |
| 2026-04-27 20:05 | 38.89662 | -74.59986 | 30160 ft | 494 kts | 103° |
| 2026-04-27 20:05 | 38.88598 | -74.55895 | 30515 ft | 494 kts | 103° |
| 2026-04-27 20:05 | 38.87508 | -74.51715 | 30848 ft | 494 kts | 103° |
| 2026-04-27 20:05 | 38.86417 | -74.47540 | 31206 ft | 493 kts | 103° |
| 2026-04-27 20:06 | 38.85324 | -74.43364 | 31568 ft | 493 kts | 103° |
| 2026-04-27 20:06 | 38.84236 | -74.39196 | 31931 ft | 492 kts | 102° |
| 2026-04-27 20:06 | 38.83150 | -74.35033 | 32328 ft | 492 kts | 102° |
| 2026-04-27 20:06 | 38.82066 | -74.30874 | 32680 ft | 492 kts | 102° |
| 2026-04-27 20:07 | 38.80981 | -74.26723 | 33040 ft | 491 kts | 102° |
| 2026-04-27 20:07 | 38.79892 | -74.22570 | 33407 ft | 491 kts | 102° |
| 2026-04-27 20:07 | 38.78770 | -74.18430 | 33768 ft | 493 kts | 105° |
| 2026-04-27 20:07 | 38.77274 | -74.14448 | 34115 ft | 500 kts | 115° |
| 2026-04-27 20:08 | 38.75417 | -74.10661 | 34425 ft | 502 kts | 117° |
| 2026-04-27 20:08 | 38.73534 | -74.06897 | 34723 ft | 501 kts | 118° |
| 2026-04-27 20:08 | 38.71657 | -74.03151 | 35031 ft | 500 kts | 118° |
| 2026-04-27 20:08 | 38.69781 | -73.99404 | 35254 ft | 500 kts | 117° |
| 2026-04-27 20:09 | 38.66017 | -73.91862 | 35270 ft | 505 kts | 117° |
| 2026-04-27 20:09 | 38.62225 | -73.84288 | 35265 ft | 506 kts | 118° |
| 2026-04-27 20:10 | 38.58421 | -73.76721 | 35270 ft | 506 kts | 118° |
| 2026-04-27 20:10 | 38.54611 | -73.69167 | 35270 ft | 506 kts | 118° |
| 2026-04-27 20:11 | 38.50791 | -73.61613 | 35293 ft | 506 kts | 118° |
| 2026-04-27 20:11 | 38.46905 | -73.54121 | 35288 ft | 506 kts | 119° |
| 2026-04-27 20:12 | 38.42967 | -73.46688 | 35276 ft | 505 kts | 119° |
| 2026-04-27 20:12 | 38.39134 | -73.39189 | 35280 ft | 504 kts | 117° |
| 2026-04-27 20:13 | 38.35388 | -73.31640 | 35255 ft | 504 kts | 117° |
| 2026-04-27 20:13 | 38.31629 | -73.24114 | 35290 ft | 503 kts | 118° |
| 2026-04-27 20:14 | 38.27843 | -73.16629 | 35273 ft | 503 kts | 118° |
| 2026-04-27 20:14 | 38.24040 | -73.09164 | 35267 ft | 502 kts | 118° |
| 2026-04-27 20:15 | 38.20251 | -73.01709 | 35257 ft | 502 kts | 118° |
| 2026-04-27 20:15 | 38.16454 | -72.94265 | 35275 ft | 502 kts | 119° |
| 2026-04-27 20:16 | 38.12615 | -72.86852 | 35263 ft | 502 kts | 119° |
| 2026-04-27 20:16 | 38.08768 | -72.79466 | 35251 ft | 501 kts | 119° |
| 2026-04-27 20:17 | 38.04935 | -72.72075 | 35237 ft | 501 kts | 119° |
| 2026-04-27 20:17 | 38.01749 | -72.65936 | 35232 ft | 501 kts | 119° |
| 2026-04-27 20:18 | 37.97330 | -72.57331 | 35260 ft | 501 kts | 119° |
| 2026-04-27 20:18 | 37.93570 | -72.49908 | 35242 ft | 500 kts | 119° |
| 2026-04-27 20:19 | 37.89813 | -72.42516 | 35236 ft | 499 kts | 119° |
| 2026-04-27 20:19 | 37.86052 | -72.35139 | 35221 ft | 498 kts | 119° |
| 2026-04-27 20:20 | 37.82302 | -72.27769 | 35221 ft | 498 kts | 119° |
| 2026-04-27 20:20 | 37.78559 | -72.20400 | 35232 ft | 497 kts | 120° |
| 2026-04-27 20:21 | 37.74811 | -72.13070 | 35225 ft | 496 kts | 120° |
| 2026-04-27 20:21 | 37.71049 | -72.05778 | 35199 ft | 495 kts | 120° |
| 2026-04-27 20:22 | 37.67297 | -71.98501 | 35203 ft | 495 kts | 120° |
| 2026-04-27 20:22 | 37.63377 | -71.91357 | 35201 ft | 495 kts | 123° |
| 2026-04-27 20:23 | 37.59266 | -71.84393 | 35216 ft | 494 kts | 125° |
| 2026-04-27 20:23 | 37.55150 | -71.77475 | 35204 ft | 492 kts | 124° |
| 2026-04-27 20:24 | 37.51103 | -71.70522 | 35201 ft | 491 kts | 124° |
| 2026-04-27 20:24 | 37.47117 | -71.63612 | 35187 ft | 491 kts | 124° |
| 2026-04-27 20:25 | 37.43091 | -71.56677 | 35186 ft | 491 kts | 124° |
| 2026-04-27 20:25 | 37.39066 | -71.49758 | 35172 ft | 489 kts | 125° |
| 2026-04-27 20:26 | 37.35036 | -71.42877 | 35178 ft | 488 kts | 126° |
| 2026-04-27 20:26 | 37.31001 | -71.36022 | 35177 ft | 487 kts | 126° |
| 2026-04-27 20:27 | 37.26973 | -71.29176 | 35176 ft | 487 kts | 126° |
| 2026-04-27 20:27 | 37.22936 | -71.22309 | 35138 ft | 495 kts | 125° |
| 2026-04-27 20:28 | 37.18797 | -71.15270 | 35138 ft | 507 kts | 126° |
| 2026-04-27 20:28 | 37.15300 | -71.09350 | 35135 ft | 509 kts | 126° |
| 2026-04-27 20:29 | 37.10358 | -71.01017 | 35123 ft | 510 kts | 126° |
| 2026-04-27 20:29 | 37.06123 | -70.93889 | 35122 ft | 510 kts | 126° |
| 2026-04-27 20:30 | 37.01883 | -70.86766 | 35130 ft | 510 kts | 126° |
| 2026-04-27 20:30 | 36.97661 | -70.79649 | 35127 ft | 509 kts | 127° |
| 2026-04-27 20:31 | 36.93415 | -70.72565 | 35122 ft | 509 kts | 127° |
| 2026-04-27 20:31 | 36.89201 | -70.65547 | 35124 ft | 508 kts | 127° |
| 2026-04-27 20:32 | 36.84942 | -70.58441 | 35110 ft | 508 kts | 127° |
| 2026-04-27 20:32 | 36.80711 | -70.51392 | 35127 ft | 507 kts | 127° |
| 2026-04-27 20:33 | 36.76486 | -70.44368 | 35106 ft | 506 kts | 127° |
| 2026-04-27 20:33 | 36.72252 | -70.37378 | 35107 ft | 505 kts | 127° |
| 2026-04-27 20:34 | 36.68033 | -70.30400 | 35094 ft | 504 kts | 127° |
| 2026-04-27 20:34 | 36.63811 | -70.23432 | 35094 ft | 504 kts | 128° |
| 2026-04-27 20:35 | 36.59615 | -70.16528 | 35097 ft | 503 kts | 128° |
| 2026-04-27 20:35 | 36.55372 | -70.09546 | 35085 ft | 502 kts | 128° |
| 2026-04-27 20:36 | 36.51180 | -70.02675 | 35078 ft | 502 kts | 128° |
| 2026-04-27 20:36 | 36.46965 | -69.95773 | 35076 ft | 501 kts | 128° |
| 2026-04-27 20:37 | 36.42748 | -69.88883 | 35055 ft | 501 kts | 128° |
| 2026-04-27 20:37 | 36.38532 | -69.82008 | 35064 ft | 500 kts | 129° |
| 2026-04-27 20:38 | 36.34316 | -69.75161 | 35063 ft | 499 kts | 129° |
| 2026-04-27 20:38 | 36.30100 | -69.68328 | 35063 ft | 498 kts | 129° |
| 2026-04-27 20:39 | 36.25888 | -69.61511 | 35054 ft | 498 kts | 129° |
| 2026-04-27 20:39 | 36.21679 | -69.54700 | 35052 ft | 498 kts | 129° |
| 2026-04-27 20:40 | 36.17473 | -69.47904 | 35033 ft | 496 kts | 131° |
| 2026-04-27 20:40 | 36.12490 | -69.42136 | 35029 ft | 489 kts | 146° |
| 2026-04-27 20:41 | 36.07100 | -69.37013 | 35039 ft | 488 kts | 146° |
| 2026-04-27 20:41 | 36.01728 | -69.31879 | 35043 ft | 488 kts | 145° |
| 2026-04-27 20:42 | 35.96364 | -69.26755 | 35044 ft | 488 kts | 145° |
| 2026-04-27 20:42 | 35.90998 | -69.21635 | 35038 ft | 487 kts | 146° |
| 2026-04-27 20:43 | 35.85632 | -69.16530 | 35029 ft | 486 kts | 146° |
| 2026-04-27 20:43 | 35.80281 | -69.11448 | 35038 ft | 485 kts | 146° |
| 2026-04-27 20:44 | 35.75838 | -69.07239 | 35041 ft | 484 kts | 146° |
| 2026-04-27 20:44 | 35.70498 | -69.02188 | 35041 ft | 484 kts | 146° |
| 2026-04-27 20:45 | 35.65161 | -68.97152 | 35033 ft | 483 kts | 146° |
| 2026-04-27 20:45 | 35.59826 | -68.92125 | 35035 ft | 483 kts | 146° |
| 2026-04-27 20:46 | 35.54481 | -68.87116 | 35013 ft | 483 kts | 147° |
| 2026-04-27 20:46 | 35.49125 | -68.82138 | 35020 ft | 483 kts | 146° |
| 2026-04-27 20:47 | 35.43803 | -68.77098 | 35024 ft | 483 kts | 146° |
| 2026-04-27 20:47 | 35.38475 | -68.72081 | 35023 ft | 483 kts | 146° |
| 2026-04-27 20:48 | 35.33135 | -68.67086 | 35022 ft | 483 kts | 146° |
| 2026-04-27 20:48 | 35.27793 | -68.62104 | 34998 ft | 483 kts | 147° |
| 2026-04-27 20:49 | 35.22452 | -68.57130 | 35006 ft | 483 kts | 147° |
| 2026-04-27 20:49 | 35.17109 | -68.52161 | 35018 ft | 482 kts | 147° |
| 2026-04-27 20:50 | 35.11783 | -68.47191 | 35015 ft | 481 kts | 147° |
| 2026-04-27 20:50 | 35.06449 | -68.42264 | 35015 ft | 480 kts | 148° |
| 2026-04-27 20:51 | 35.01113 | -68.37359 | 35016 ft | 480 kts | 147° |
| 2026-04-27 20:51 | 34.95790 | -68.32450 | 35001 ft | 479 kts | 148° |
| 2026-04-27 20:52 | 34.90448 | -68.27507 | 35011 ft | 479 kts | 148° |
| 2026-04-27 20:52 | 34.85174 | -68.22641 | 35014 ft | 478 kts | 148° |
| 2026-04-27 20:53 | 34.79866 | -68.17765 | 34993 ft | 478 kts | 149° |
| 2026-04-27 20:53 | 34.74573 | -68.12903 | 35005 ft | 476 kts | 150° |
| 2026-04-27 20:54 | 34.66637 | -68.05652 | 35008 ft | 475 kts | 150° |
| 2026-04-27 20:55 | 34.61359 | -68.00823 | 35005 ft | 475 kts | 150° |
| 2026-04-27 20:55 | 34.56083 | -67.96010 | 35011 ft | 474 kts | 150° |
| 2026-04-27 20:56 | 34.50806 | -67.91202 | 35015 ft | 474 kts | 150° |
| 2026-04-27 20:56 | 34.45533 | -67.86406 | 35020 ft | 474 kts | 150° |
| 2026-04-27 20:57 | 34.40258 | -67.81614 | 34991 ft | 474 kts | 151° |
| 2026-04-27 20:57 | 34.34984 | -67.76829 | 35008 ft | 474 kts | 151° |
| 2026-04-27 20:58 | 34.29708 | -67.72058 | 35014 ft | 473 kts | 151° |
| 2026-04-27 20:58 | 34.24436 | -67.67294 | 35019 ft | 473 kts | 151° |
| 2026-04-27 20:59 | 34.19165 | -67.62540 | 35018 ft | 473 kts | 151° |
| 2026-04-27 20:59 | 34.14173 | -67.57284 | 35017 ft | 486 kts | 137° |
| 2026-04-27 21:00 | 34.10503 | -67.50272 | 34972 ft | 501 kts | 125° |
| 2026-04-27 21:00 | 34.07213 | -67.42846 | 34981 ft | 503 kts | 126° |
| 2026-04-27 21:01 | 34.03868 | -67.35442 | 34998 ft | 503 kts | 126° |
| 2026-04-27 21:01 | 34.00522 | -67.28042 | 35012 ft | 503 kts | 126° |
| 2026-04-27 21:02 | 33.97185 | -67.20632 | 34980 ft | 503 kts | 126° |
| 2026-04-27 21:02 | 33.93848 | -67.13233 | 35008 ft | 503 kts | 126° |
| 2026-04-27 21:03 | 33.90508 | -67.05843 | 35024 ft | 502 kts | 126° |
| 2026-04-27 21:03 | 33.87166 | -66.98460 | 35029 ft | 502 kts | 126° |
| 2026-04-27 21:04 | 33.83822 | -66.91093 | 35027 ft | 502 kts | 126° |
| 2026-04-27 21:04 | 33.80479 | -66.83739 | 35028 ft | 501 kts | 126° |
| 2026-04-27 21:05 | 33.77141 | -66.76400 | 35043 ft | 500 kts | 126° |
| 2026-04-27 21:05 | 33.73792 | -66.69082 | 35045 ft | 499 kts | 126° |
| 2026-04-27 21:06 | 33.70438 | -66.61786 | 35049 ft | 499 kts | 126° |
| 2026-04-27 21:06 | 33.67087 | -66.54501 | 34941 ft | 497 kts | 126° |
| 2026-04-27 21:06 | 33.65443 | -66.50892 | 34127 ft | 488 kts | 124° |
| 2026-04-27 21:07 | 33.63827 | -66.47349 | 33128 ft | 481 kts | 125° |
| 2026-04-27 21:07 | 33.62229 | -66.43866 | 32359 ft | 471 kts | 125° |
| 2026-04-27 21:07 | 33.60672 | -66.40482 | 31925 ft | 455 kts | 126° |
| 2026-04-27 21:07 | 33.59166 | -66.37212 | 31458 ft | 441 kts | 126° |
| 2026-04-27 21:08 | 33.57702 | -66.34043 | 31004 ft | 428 kts | 126° |
| 2026-04-27 21:08 | 33.56276 | -66.30972 | 30559 ft | 416 kts | 126° |
| 2026-04-27 21:08 | 33.54888 | -66.27979 | 30131 ft | 405 kts | 126° |
| 2026-04-27 21:08 | 33.53528 | -66.25043 | 29657 ft | 402 kts | 126° |
| 2026-04-27 21:09 | 33.52262 | -66.22318 | 29299 ft | 399 kts | 125° |
| 2026-04-27 21:09 | 33.50884 | -66.19348 | 28870 ft | 396 kts | 125° |
| 2026-04-27 21:09 | 33.49542 | -66.16473 | 28473 ft | 394 kts | 125° |
| 2026-04-27 21:09 | 33.48208 | -66.13621 | 28080 ft | 392 kts | 125° |
| 2026-04-27 21:10 | 33.46882 | -66.10783 | 27696 ft | 389 kts | 125° |
| 2026-04-27 21:10 | 33.45569 | -66.07963 | 27316 ft | 387 kts | 125° |
| 2026-04-27 21:10 | 33.44265 | -66.05159 | 26942 ft | 384 kts | 124° |
| 2026-04-27 21:10 | 33.42969 | -66.02370 | 26558 ft | 382 kts | 124° |
| 2026-04-27 21:11 | 33.41682 | -65.99605 | 26192 ft | 379 kts | 124° |
| 2026-04-27 21:11 | 33.40400 | -65.96858 | 25819 ft | 377 kts | 124° |
| 2026-04-27 21:11 | 33.39120 | -65.94125 | 25430 ft | 376 kts | 124° |
| 2026-04-27 21:11 | 33.37844 | -65.91400 | 25031 ft | 375 kts | 124° |
| 2026-04-27 21:12 | 33.36569 | -65.88686 | 24635 ft | 374 kts | 124° |
| 2026-04-27 21:12 | 33.35292 | -65.85976 | 24236 ft | 374 kts | 124° |
| 2026-04-27 21:12 | 33.34011 | -65.83266 | 23819 ft | 374 kts | 124° |
| 2026-04-27 21:12 | 33.32731 | -65.80553 | 23353 ft | 375 kts | 124° |
| 2026-04-27 21:13 | 33.31453 | -65.77840 | 22914 ft | 374 kts | 124° |
| 2026-04-27 21:13 | 33.30180 | -65.75138 | 22474 ft | 372 kts | 124° |
| 2026-04-27 21:13 | 33.28906 | -65.72446 | 22042 ft | 371 kts | 124° |
| 2026-04-27 21:13 | 33.27637 | -65.69764 | 21602 ft | 370 kts | 124° |
| 2026-04-27 21:14 | 33.26368 | -65.67090 | 21154 ft | 370 kts | 124° |
| 2026-04-27 21:14 | 33.25103 | -65.64419 | 20724 ft | 369 kts | 123° |
| 2026-04-27 21:14 | 33.23841 | -65.61751 | 20283 ft | 368 kts | 123° |
| 2026-04-27 21:14 | 33.22582 | -65.59090 | 19833 ft | 368 kts | 123° |
| 2026-04-27 21:15 | 33.21320 | -65.56428 | 19393 ft | 368 kts | 123° |
| 2026-04-27 21:15 | 33.20056 | -65.53769 | 18949 ft | 368 kts | 123° |
| 2026-04-27 21:15 | 33.18791 | -65.51109 | 18495 ft | 369 kts | 123° |
| 2026-04-27 21:15 | 33.17523 | -65.48447 | 18007 ft | 369 kts | 123° |
| 2026-04-27 21:16 | 33.16259 | -65.45790 | 17548 ft | 367 kts | 123° |
| 2026-04-27 21:16 | 33.15002 | -65.43148 | 17098 ft | 365 kts | 123° |
| 2026-04-27 21:16 | 33.13751 | -65.40519 | 16643 ft | 364 kts | 123° |
| 2026-04-27 21:16 | 33.12505 | -65.37901 | 16196 ft | 362 kts | 123° |
| 2026-04-27 21:17 | 33.11262 | -65.35295 | 15752 ft | 361 kts | 124° |
| 2026-04-27 21:17 | 33.10022 | -65.32700 | 15303 ft | 360 kts | 124° |
| 2026-04-27 21:17 | 33.08783 | -65.30115 | 14853 ft | 359 kts | 124° |
| 2026-04-27 21:17 | 33.07533 | -65.27550 | 14404 ft | 356 kts | 128° |
| 2026-04-27 21:18 | 33.05946 | -65.25355 | 13966 ft | 346 kts | 144° |
| 2026-04-27 21:18 | 33.03974 | -65.23795 | 13508 ft | 336 kts | 160° |
| 2026-04-27 21:18 | 33.01814 | -65.22829 | 13087 ft | 329 kts | 166° |
| 2026-04-27 21:18 | 32.99653 | -65.21952 | 12670 ft | 326 kts | 166° |
| 2026-04-27 21:19 | 32.97516 | -65.21082 | 12246 ft | 324 kts | 166° |
| 2026-04-27 21:19 | 32.95392 | -65.20219 | 11850 ft | 321 kts | 165° |
| 2026-04-27 21:19 | 32.93292 | -65.19364 | 11583 ft | 314 kts | 165° |
| 2026-04-27 21:20 | 32.89285 | -65.17722 | 11266 ft | 295 kts | 165° |
| 2026-04-27 21:20 | 32.87358 | -65.16937 | 10964 ft | 291 kts | 165° |
| 2026-04-27 21:20 | 32.85447 | -65.16166 | 10620 ft | 288 kts | 166° |
| 2026-04-27 21:20 | 32.83580 | -65.15415 | 10290 ft | 286 kts | 165° |
| 2026-04-27 21:21 | 32.81705 | -65.14659 | 9945 ft | 284 kts | 165° |
| 2026-04-27 21:21 | 32.79817 | -65.13896 | 9551 ft | 282 kts | 165° |
| 2026-04-27 21:21 | 32.77967 | -65.13147 | 9164 ft | 280 kts | 165° |
| 2026-04-27 21:21 | 32.76125 | -65.12400 | 8796 ft | 279 kts | 165° |
| 2026-04-27 21:22 | 32.74320 | -65.11668 | 8419 ft | 277 kts | 165° |
| 2026-04-27 21:22 | 32.72475 | -65.10918 | 8064 ft | 275 kts | 165° |
| 2026-04-27 21:22 | 32.70665 | -65.10181 | 7702 ft | 274 kts | 165° |
| 2026-04-27 21:22 | 32.68876 | -65.09455 | 7415 ft | 270 kts | 165° |
| 2026-04-27 21:23 | 32.67104 | -65.08739 | 7151 ft | 268 kts | 165° |
| 2026-04-27 21:23 | 32.65339 | -65.08031 | 6883 ft | 267 kts | 165° |
| 2026-04-27 21:23 | 32.63604 | -65.07334 | 6625 ft | 267 kts | 165° |
| 2026-04-27 21:23 | 32.61849 | -65.06625 | 6358 ft | 266 kts | 165° |
| 2026-04-27 21:24 | 32.60104 | -65.05920 | 6089 ft | 264 kts | 164° |
| 2026-04-27 21:24 | 32.58370 | -65.05222 | 5832 ft | 263 kts | 164° |
| 2026-04-27 21:24 | 32.56643 | -65.04529 | 5574 ft | 261 kts | 164° |
| 2026-04-27 21:24 | 32.54925 | -65.03840 | 5314 ft | 260 kts | 164° |
| 2026-04-27 21:25 | 32.53216 | -65.03152 | 5070 ft | 259 kts | 163° |
| 2026-04-27 21:25 | 32.51519 | -65.02468 | 4816 ft | 256 kts | 163° |
| 2026-04-27 21:25 | 32.49832 | -65.01790 | 4553 ft | 256 kts | 163° |
| 2026-04-27 21:25 | 32.48158 | -65.01114 | 4377 ft | 250 kts | 163° |
| 2026-04-27 21:26 | 32.47086 | -65.00680 | 4312 ft | 243 kts | 163° |
| 2026-04-27 21:26 | 32.45521 | -65.00051 | 4221 ft | 233 kts | 164° |
| 2026-04-27 21:26 | 32.44019 | -64.99447 | 4120 ft | 222 kts | 164° |
| 2026-04-27 21:26 | 32.42635 | -64.98715 | 4026 ft | 218 kts | 147° |
| 2026-04-27 21:27 | 32.41618 | -64.97373 | 3881 ft | 224 kts | 122° |
| 2026-04-27 21:27 | 32.41164 | -64.95605 | 3670 ft | 226 kts | 105° |
| 2026-04-27 21:27 | 32.40869 | -64.93791 | 3464 ft | 222 kts | 107° |
| 2026-04-27 21:27 | 32.40578 | -64.92034 | 3266 ft | 214 kts | 107° |
| 2026-04-27 21:28 | 32.40295 | -64.90340 | 3076 ft | 206 kts | 107° |
| 2026-04-27 21:28 | 32.40023 | -64.88720 | 2906 ft | 194 kts | 108° |
| 2026-04-27 21:28 | 32.39769 | -64.87206 | 2727 ft | 181 kts | 108° |
| 2026-04-27 21:28 | 32.39533 | -64.85811 | 2565 ft | 166 kts | 109° |
| 2026-04-27 21:29 | 32.39311 | -64.84517 | 2421 ft | 156 kts | 109° |
| 2026-04-27 21:29 | 32.39093 | -64.83270 | 2291 ft | 154 kts | 109° |
| 2026-04-27 21:29 | 32.38881 | -64.82051 | 2170 ft | 148 kts | 109° |
| 2026-04-27 21:29 | 32.38676 | -64.80871 | 2028 ft | 145 kts | 109° |
| 2026-04-27 21:30 | 32.38475 | -64.79705 | 1899 ft | 144 kts | 110° |
| 2026-04-27 21:30 | 32.38298 | -64.78544 | 1793 ft | 142 kts | 111° |
| 2026-04-27 21:30 | 32.38091 | -64.77391 | 1542 ft | 142 kts | 114° |
| 2026-04-27 21:30 | 32.37873 | -64.76250 | 1398 ft | 143 kts | 111° |
| 2026-04-27 21:31 | 32.37641 | -64.75101 | 1196 ft | 144 kts | 110° |
| 2026-04-27 21:31 | 32.37449 | -64.73946 | 1019 ft | 140 kts | 106° |
| 2026-04-27 21:31 | 32.37320 | -64.72794 | 894 ft | 142 kts | 105° |
| 2026-04-27 21:31 | 32.37096 | -64.71661 | 575 ft | 141 kts | 108° |
| 2026-04-27 21:32 | 32.36871 | -64.70529 | 286 ft | 142 kts | 106° |
| 2026-04-27 21:32 | 32.36673 | -64.69397 | 90 ft | 141 kts | 106° |
| 2026-04-27 21:32 | 32.36478 | -64.68302 | 24 ft | 121 kts | 102° |
| 2026-04-27 21:32 | 32.36365 | -64.67633 | 20 ft | 49 kts | 101° |
| 2026-04-27 21:33 | 32.36296 | -64.67238 | 20 ft | 39 kts | 101° |
| 2026-04-27 21:33 | 32.36306 | -64.67065 | 23 ft | 14 kts | 70° |
| 2026-04-27 21:33 | 32.36327 | -64.67008 | 25 ft | 0 kts | 66° |
| 2026-04-27 21:34 | 32.36335 | -64.66981 | 30 ft | 10 kts | 70° |
| 2026-04-27 21:34 | 32.36371 | -64.66913 | 27 ft | 9 kts | 52° |
| 2026-04-27 21:35 | 32.36370 | -64.66836 | 28 ft | 0 kts | 93° |
| 2026-04-27 21:35 | 32.36391 | -64.66803 | 28 ft | 14 kts | 19° |
| 2026-04-27 21:35 | 32.36465 | -64.66793 | 29 ft | 7 kts | 17° |
| 2026-04-27 21:35 | 32.36468 | -64.66755 | 29 ft | 5 kts | 157° |
| 2026-04-27 21:36 | 32.36434 | -64.66746 | 29 ft | 3 kts | 181° |
| 2026-04-27 21:36 | 32.36429 | -64.66755 | 28 ft | 1 kts | 240° |